createdAt,value
2022-11-10T00:00:20.524Z,83.31
2022-11-10T00:01:20.245Z,82.93
2022-11-10T00:02:20.279Z,83.03
2022-11-10T00:03:20.686Z,83.03
2022-11-10T00:04:20.420Z,82.83
2022-11-10T00:05:20.366Z,82.83
2022-11-10T00:06:20.395Z,82.83
2022-11-10T00:07:20.731Z,83.22
2022-11-10T00:08:20.494Z,83.41
2022-11-10T00:09:20.491Z,83.12
2022-11-10T00:10:20.519Z,82.93
2022-11-10T00:11:20.546Z,82.83
2022-11-10T00:13:20.838Z,82.26
2022-11-10T00:14:20.938Z,83.12
2022-11-10T00:15:20.666Z,83.22
2022-11-10T00:16:20.693Z,83.12
2022-11-10T00:17:20.732Z,83.03
2022-11-10T00:19:20.791Z,83.41
2022-11-10T00:20:20.818Z,83.03
2022-11-10T00:21:21.143Z,83.03
2022-11-10T00:23:21.396Z,83.31
2022-11-10T00:24:20.936Z,82.93
2022-11-10T00:25:20.973Z,82.93
2022-11-10T00:26:20.993Z,83.03
2022-11-10T00:27:21.126Z,83.22
2022-11-10T00:28:21.303Z,83.51
2022-11-10T00:29:21.108Z,83.22
2022-11-10T00:30:21.127Z,83.80
2022-11-10T00:31:21.151Z,83.61
2022-11-10T00:32:21.181Z,83.31
2022-11-10T00:33:21.475Z,83.22
2022-11-10T00:34:21.295Z,83.80
2022-11-10T00:35:21.511Z,83.80
2022-11-10T00:36:21.452Z,83.61
2022-11-10T00:37:21.322Z,83.80
2022-11-10T00:38:21.351Z,83.31
2022-11-10T00:39:21.384Z,83.89
2022-11-10T00:40:21.415Z,83.80
2022-11-10T00:41:21.444Z,83.51
2022-11-10T00:42:21.774Z,83.61
2022-11-10T00:43:26.313Z,83.61
2022-11-10T00:44:21.548Z,83.80
2022-11-10T00:45:21.584Z,83.61
2022-11-10T00:46:21.597Z,83.51
2022-11-10T00:47:21.634Z,83.70
2022-11-10T00:48:21.652Z,83.51
2022-11-10T00:49:21.986Z,83.70
2022-11-10T00:50:21.717Z,83.70
2022-11-10T00:51:21.749Z,83.70
2022-11-10T00:52:21.778Z,83.51
2022-11-10T00:53:22.142Z,83.61
2022-11-10T00:54:21.835Z,83.51
2022-11-10T00:56:22.195Z,83.61
2022-11-10T00:57:21.928Z,83.51
2022-11-10T00:58:24.511Z,83.61
2022-11-10T00:59:21.984Z,83.61
2022-11-10T01:01:22.114Z,83.61
2022-11-10T01:02:22.074Z,83.70
2022-11-10T01:03:22.751Z,83.61
2022-11-10T01:04:22.131Z,83.70
2022-11-10T01:05:22.164Z,83.70
2022-11-10T01:06:22.190Z,83.61
2022-11-10T01:07:22.223Z,83.80
2022-11-10T01:08:22.252Z,83.70
2022-11-10T01:09:22.532Z,83.51
2022-11-10T01:10:22.411Z,83.51
2022-11-10T01:11:22.341Z,83.51
2022-11-10T01:12:22.475Z,83.51
2022-11-10T01:13:22.749Z,83.41
2022-11-10T01:14:22.429Z,83.70
2022-11-10T01:15:27.274Z,83.41
2022-11-10T01:16:22.492Z,83.80
2022-11-10T01:17:22.541Z,83.61
2022-11-10T01:18:22.551Z,83.80
2022-11-10T01:19:22.583Z,83.61
2022-11-10T01:20:22.609Z,83.75
2022-11-10T01:21:22.891Z,83.80
2022-11-10T01:22:22.669Z,83.70
2022-11-10T01:23:23.072Z,83.70
2022-11-10T01:24:22.730Z,83.89
2022-11-10T01:25:22.764Z,83.66
2022-11-10T01:26:22.786Z,83.99
2022-11-10T01:27:22.817Z,83.80
2022-11-10T01:28:23.151Z,83.80
2022-11-10T01:29:22.882Z,83.61
2022-11-10T01:30:22.911Z,83.70
2022-11-10T01:31:22.939Z,83.70
2022-11-10T01:32:22.970Z,83.80
2022-11-10T01:33:23.415Z,83.70
2022-11-10T01:34:23.036Z,83.99
2022-11-10T01:35:23.310Z,83.61
2022-11-10T01:36:23.093Z,83.75
2022-11-10T01:37:23.121Z,83.99
2022-11-10T01:38:23.148Z,83.89
2022-11-10T01:39:23.178Z,83.80
2022-11-10T01:40:23.262Z,83.95
2022-11-10T01:41:23.289Z,83.47
2022-11-10T01:42:23.566Z,83.75
2022-11-10T01:43:23.709Z,83.80
2022-11-10T01:44:23.325Z,83.85
2022-11-10T01:45:23.368Z,83.47
2022-11-10T01:46:23.392Z,83.70
2022-11-10T01:47:23.417Z,83.85
2022-11-10T01:48:23.453Z,83.51
2022-11-10T01:49:23.794Z,83.85
2022-11-10T01:50:23.509Z,83.56
2022-11-10T01:51:23.534Z,83.56
2022-11-10T01:52:23.576Z,83.95
2022-11-10T01:53:23.851Z,83.56
2022-11-10T01:54:23.627Z,83.66
2022-11-10T01:55:23.657Z,83.75
2022-11-10T01:56:23.936Z,83.75
2022-11-10T01:57:23.719Z,84.05
2022-11-10T01:58:23.748Z,84.23
2022-11-10T01:59:23.771Z,83.75
2022-11-10T02:00:23.907Z,83.75
2022-11-10T02:01:23.835Z,83.75
2022-11-10T02:02:23.863Z,83.56
2022-11-10T02:03:24.635Z,83.80
2022-11-10T02:04:23.931Z,83.75
2022-11-10T02:05:23.979Z,83.75
2022-11-10T02:06:24.284Z,84.14
2022-11-10T02:07:24.012Z,84.23
2022-11-10T02:08:24.145Z,83.75
2022-11-10T02:09:24.078Z,84.05
2022-11-10T02:10:24.410Z,83.85
2022-11-10T02:11:24.132Z,84.23
2022-11-10T02:12:24.165Z,84.14
2022-11-10T02:13:24.462Z,84.23
2022-11-10T02:14:24.224Z,83.28
2022-11-10T02:15:24.253Z,84.05
2022-11-10T02:16:24.283Z,84.23
2022-11-10T02:17:24.561Z,84.23
2022-11-10T02:18:24.342Z,84.05
2022-11-10T02:19:24.379Z,83.85
2022-11-10T02:20:24.400Z,84.05
2022-11-10T02:21:24.450Z,84.05
2022-11-10T02:22:24.464Z,84.05
2022-11-10T02:23:24.589Z,84.05
2022-11-10T02:24:24.823Z,84.23
2022-11-10T02:25:24.548Z,84.14
2022-11-10T02:26:24.581Z,83.75
2022-11-10T02:27:24.608Z,84.05
2022-11-10T02:28:24.651Z,83.85
2022-11-10T02:29:24.669Z,83.85
2022-11-10T02:30:27.737Z,83.95
2022-11-10T02:31:24.982Z,84.23
2022-11-10T02:32:24.762Z,84.33
2022-11-10T02:33:24.964Z,84.72
2022-11-10T02:34:24.817Z,84.53
2022-11-10T02:35:24.850Z,84.05
2022-11-10T02:36:24.890Z,84.72
2022-11-10T02:37:24.933Z,84.05
2022-11-10T02:38:25.187Z,84.33
2022-11-10T02:39:25.032Z,84.05
2022-11-10T02:40:25.003Z,84.62
2022-11-10T02:41:25.027Z,84.14
2022-11-10T02:42:25.056Z,84.05
2022-11-10T02:43:25.358Z,83.95
2022-11-10T02:44:25.117Z,84.05
2022-11-10T02:45:25.446Z,84.14
2022-11-10T02:46:25.180Z,84.14
2022-11-10T02:47:25.206Z,84.05
2022-11-10T02:48:25.341Z,84.53
2022-11-10T02:49:25.265Z,83.85
2022-11-10T02:50:25.296Z,83.75
2022-11-10T02:51:25.575Z,83.85
2022-11-10T02:52:25.356Z,84.05
2022-11-10T02:53:25.537Z,84.23
2022-11-10T02:54:25.423Z,84.72
2022-11-10T02:55:25.491Z,84.05
2022-11-10T02:56:25.570Z,83.95
2022-11-10T02:57:26.023Z,83.95
2022-11-10T02:58:25.737Z,84.05
2022-11-10T02:59:25.560Z,84.05
2022-11-10T03:00:25.593Z,84.14
2022-11-10T03:01:25.674Z,84.05
2022-11-10T03:02:29.811Z,83.75
2022-11-10T03:03:25.983Z,83.85
2022-11-10T03:04:25.765Z,83.85
2022-11-10T03:05:25.740Z,83.85
2022-11-10T03:06:25.771Z,83.95
2022-11-10T03:07:25.802Z,83.95
2022-11-10T03:08:25.842Z,84.14
2022-11-10T03:09:25.884Z,84.14
2022-11-10T03:11:31.852Z,83.95
2022-11-10T03:12:25.952Z,84.05
2022-11-10T03:13:32.270Z,84.53
2022-11-10T03:14:26.007Z,84.05
2022-11-10T03:15:26.046Z,84.62
2022-11-10T03:16:26.069Z,84.05
2022-11-10T03:17:26.402Z,84.72
2022-11-10T03:18:26.130Z,83.85
2022-11-10T03:19:26.158Z,84.14
2022-11-10T03:20:26.288Z,84.23
2022-11-10T03:21:26.220Z,84.05
2022-11-10T03:22:26.251Z,84.23
2022-11-10T03:23:26.297Z,84.72
2022-11-10T03:24:26.612Z,84.05
2022-11-10T03:25:26.357Z,84.23
2022-11-10T03:26:26.367Z,83.85
2022-11-10T03:27:26.406Z,83.95
2022-11-10T03:28:26.479Z,84.05
2022-11-10T03:29:26.481Z,84.05
2022-11-10T03:31:26.822Z,84.14
2022-11-10T03:32:26.550Z,84.14
2022-11-10T03:33:26.575Z,84.14
2022-11-10T03:34:31.552Z,84.23
2022-11-10T03:35:26.636Z,84.33
2022-11-10T03:36:26.669Z,84.05
2022-11-10T03:37:26.694Z,84.43
2022-11-10T03:38:26.976Z,84.43
2022-11-10T03:39:26.753Z,84.43
2022-11-10T03:40:26.789Z,84.23
2022-11-10T03:41:26.838Z,84.43
2022-11-10T03:42:26.848Z,84.23
2022-11-10T03:43:26.876Z,84.43
2022-11-10T03:44:26.902Z,84.14
2022-11-10T03:45:27.234Z,84.23
2022-11-10T03:46:26.962Z,84.23
2022-11-10T03:47:26.992Z,84.33
2022-11-10T03:48:27.020Z,84.23
2022-11-10T03:49:27.057Z,84.33
2022-11-10T03:50:27.083Z,84.05
2022-11-10T03:51:27.117Z,84.23
2022-11-10T03:52:27.441Z,84.23
2022-11-10T03:53:27.172Z,84.23
2022-11-10T03:54:27.204Z,84.33
2022-11-10T03:55:27.326Z,84.43
2022-11-10T03:56:27.261Z,84.23
2022-11-10T03:57:27.308Z,84.33
2022-11-10T03:58:27.320Z,83.95
2022-11-10T03:59:27.601Z,84.62
2022-11-10T04:00:27.381Z,84.72
2022-11-10T04:01:27.441Z,83.75
2022-11-10T04:02:27.545Z,84.23
2022-11-10T04:03:27.482Z,84.14
2022-11-10T04:04:27.508Z,84.33
2022-11-10T04:05:27.529Z,84.23
2022-11-10T04:06:27.810Z,84.05
2022-11-10T04:08:27.637Z,84.14
2022-11-10T04:09:27.650Z,84.23
2022-11-10T04:11:27.704Z,84.14
2022-11-10T04:12:27.738Z,84.23
2022-11-10T04:13:28.088Z,84.05
2022-11-10T04:14:27.795Z,84.23
2022-11-10T04:15:27.826Z,84.23
2022-11-10T04:16:27.855Z,84.23
2022-11-10T04:17:27.985Z,84.05
2022-11-10T04:18:27.925Z,84.23
2022-11-10T04:19:27.945Z,84.05
2022-11-10T04:20:28.229Z,84.14
2022-11-10T04:23:28.062Z,84.05
2022-11-10T04:24:28.199Z,84.33
2022-11-10T04:26:28.581Z,84.33
2022-11-10T04:27:28.196Z,84.05
2022-11-10T04:28:28.212Z,84.14
2022-11-10T04:29:28.266Z,84.14
2022-11-10T04:30:28.275Z,84.14
2022-11-10T04:31:28.302Z,84.43
2022-11-10T04:32:28.635Z,84.23
2022-11-10T04:33:28.372Z,84.23
2022-11-10T04:34:28.414Z,84.23
2022-11-10T04:35:28.420Z,84.14
2022-11-10T04:36:28.454Z,84.33
2022-11-10T04:37:28.485Z,84.23
2022-11-10T04:38:28.765Z,84.33
2022-11-10T04:39:28.542Z,84.14
2022-11-10T04:40:28.566Z,84.43
2022-11-10T04:41:28.600Z,84.14
2022-11-10T04:42:28.640Z,84.43
2022-11-10T04:43:28.659Z,84.23
2022-11-10T04:44:28.995Z,84.33
2022-11-10T04:45:28.767Z,84.43
2022-11-10T04:46:28.749Z,84.43
2022-11-10T04:47:28.777Z,84.23
2022-11-10T04:48:28.808Z,84.23
2022-11-10T04:49:28.841Z,84.33
2022-11-10T04:50:28.865Z,84.14
2022-11-10T04:51:29.330Z,84.62
2022-11-10T04:52:28.930Z,84.23
2022-11-10T04:53:28.958Z,84.23
2022-11-10T04:55:29.016Z,84.23
2022-11-10T04:56:29.049Z,84.23
2022-11-10T04:57:29.074Z,84.43
2022-11-10T04:58:29.408Z,84.14
2022-11-10T04:59:29.139Z,84.14
2022-11-10T05:00:29.196Z,84.23
2022-11-10T05:01:29.219Z,84.14
2022-11-10T05:02:29.226Z,84.23
2022-11-10T05:03:29.255Z,84.14
2022-11-10T05:04:29.334Z,84.33
2022-11-10T05:05:29.565Z,84.05
2022-11-10T05:06:29.423Z,84.23
2022-11-10T05:07:29.376Z,84.14
2022-11-10T05:08:29.411Z,84.14
2022-11-10T05:09:29.433Z,84.33
2022-11-10T05:10:29.489Z,84.23
2022-11-10T05:11:29.500Z,84.14
2022-11-10T05:12:29.821Z,84.14
2022-11-10T05:13:29.613Z,84.14
2022-11-10T05:14:29.584Z,84.05
2022-11-10T05:15:29.612Z,84.14
2022-11-10T05:16:29.645Z,84.14
2022-11-10T05:17:29.690Z,84.14
2022-11-10T05:18:29.704Z,84.00
2022-11-10T05:19:29.978Z,84.23
2022-11-10T05:20:29.757Z,84.19
2022-11-10T05:21:29.790Z,84.14
2022-11-10T05:22:29.821Z,84.14
2022-11-10T05:23:29.849Z,84.23
2022-11-10T05:24:29.885Z,84.14
2022-11-10T05:25:29.914Z,84.14
2022-11-10T05:26:30.241Z,84.23
2022-11-10T05:27:29.976Z,84.14
2022-11-10T05:28:29.996Z,84.23
2022-11-10T05:29:30.031Z,84.05
2022-11-10T05:30:30.099Z,84.05
2022-11-10T05:31:30.085Z,84.14
2022-11-10T05:32:30.120Z,84.23
2022-11-10T05:33:30.531Z,84.43
2022-11-10T05:34:30.178Z,84.05
2022-11-10T05:36:30.247Z,84.14
2022-11-10T05:37:30.264Z,84.10
2022-11-10T05:38:30.393Z,84.14
2022-11-10T05:40:30.759Z,84.33
2022-11-10T05:41:30.384Z,84.05
2022-11-10T05:42:30.411Z,84.33
2022-11-10T05:43:30.442Z,84.14
2022-11-10T05:44:30.476Z,84.33
2022-11-10T05:45:30.498Z,84.14
2022-11-10T05:46:30.534Z,84.14
2022-11-10T05:47:33.433Z,84.23
2022-11-10T05:48:30.594Z,84.14
2022-11-10T05:49:30.649Z,84.23
2022-11-10T05:52:30.710Z,84.19
2022-11-10T05:53:30.741Z,84.33
2022-11-10T05:54:31.072Z,84.10
2022-11-10T05:56:30.828Z,84.14
2022-11-10T05:57:30.866Z,84.00
2022-11-10T05:58:30.891Z,84.19
2022-11-10T05:59:30.921Z,84.00
2022-11-10T06:00:31.200Z,84.19
2022-11-10T06:01:31.081Z,84.19
2022-11-10T06:02:31.003Z,84.10
2022-11-10T06:03:31.112Z,84.19
2022-11-10T06:04:31.065Z,84.19
2022-11-10T06:05:31.680Z,84.19
2022-11-10T06:06:31.454Z,84.10
2022-11-10T06:07:31.155Z,84.19
2022-11-10T06:08:31.189Z,84.19
2022-11-10T06:09:31.213Z,84.23
2022-11-10T06:10:31.244Z,84.19
2022-11-10T06:11:31.272Z,84.39
2022-11-10T06:12:31.603Z,84.10
2022-11-10T06:13:31.335Z,84.10
2022-11-10T06:14:31.366Z,84.48
2022-11-10T06:15:31.394Z,84.58
2022-11-10T06:16:31.424Z,84.39
2022-11-10T06:17:31.452Z,84.53
2022-11-10T06:18:31.482Z,84.67
2022-11-10T06:19:31.510Z,84.23
2022-11-10T06:20:31.565Z,84.43
2022-11-10T06:21:31.591Z,84.05
2022-11-10T06:22:31.602Z,83.85
2022-11-10T06:23:31.629Z,84.05
2022-11-10T06:24:31.667Z,83.66
2022-11-10T06:25:31.941Z,83.85
2022-11-10T06:26:31.719Z,83.85
2022-11-10T06:27:31.749Z,83.37
2022-11-10T06:28:31.806Z,83.56
2022-11-10T06:29:31.809Z,83.47
2022-11-10T06:30:31.838Z,83.75
2022-11-10T06:31:31.874Z,83.75
2022-11-10T06:32:32.200Z,83.56
2022-11-10T06:33:31.927Z,83.75
2022-11-10T06:34:31.959Z,83.66
2022-11-10T06:35:31.992Z,83.56
2022-11-10T06:36:32.017Z,83.66
2022-11-10T06:37:32.069Z,83.75
2022-11-10T06:38:32.079Z,83.66
2022-11-10T06:40:32.385Z,83.66
2022-11-10T06:41:32.164Z,83.66
2022-11-10T06:42:32.195Z,83.56
2022-11-10T06:43:32.222Z,83.47
2022-11-10T06:44:32.256Z,83.75
2022-11-10T06:45:32.297Z,83.56
2022-11-10T06:46:32.317Z,83.95
2022-11-10T06:47:32.654Z,83.47
2022-11-10T06:48:32.372Z,83.08
2022-11-10T06:49:32.529Z,83.37
2022-11-10T06:50:32.433Z,83.28
2022-11-10T06:51:32.469Z,82.89
2022-11-10T06:52:32.494Z,83.08
2022-11-10T06:53:33.030Z,82.89
2022-11-10T06:54:32.853Z,83.08
2022-11-10T06:55:32.588Z,82.98
2022-11-10T06:56:32.610Z,82.89
2022-11-10T06:57:32.659Z,82.89
2022-11-10T06:58:32.669Z,83.18
2022-11-10T06:59:32.703Z,83.18
2022-11-10T07:00:32.728Z,83.08
2022-11-10T07:01:33.078Z,83.08
2022-11-10T07:02:32.786Z,83.28
2022-11-10T07:03:32.821Z,82.89
2022-11-10T07:04:32.846Z,83.08
2022-11-10T07:05:32.884Z,83.08
2022-11-10T07:06:32.990Z,83.37
2022-11-10T07:07:32.949Z,83.28
2022-11-10T07:08:33.266Z,83.28
2022-11-10T07:09:33.017Z,82.89
2022-11-10T07:10:33.041Z,82.89
2022-11-10T07:11:33.058Z,82.79
2022-11-10T07:13:33.120Z,82.89
2022-11-10T07:14:33.149Z,82.60
2022-11-10T07:15:33.430Z,82.41
2022-11-10T07:16:33.262Z,82.70
2022-11-10T07:17:33.237Z,82.41
2022-11-10T07:18:33.370Z,82.70
2022-11-10T07:19:33.301Z,82.60
2022-11-10T07:20:33.331Z,82.60
2022-11-10T07:21:33.363Z,82.89
2022-11-10T07:22:33.690Z,82.60
2022-11-10T07:23:33.435Z,82.41
2022-11-10T07:24:33.451Z,82.79
2022-11-10T07:25:33.669Z,82.31
2022-11-10T07:26:33.504Z,82.02
2022-11-10T07:27:33.636Z,82.31
2022-11-10T07:28:33.581Z,82.02
2022-11-10T07:29:33.900Z,82.02
2022-11-10T07:30:33.625Z,82.21
2022-11-10T07:31:33.702Z,82.21
2022-11-10T07:32:33.697Z,82.12
2022-11-10T07:33:33.715Z,82.41
2022-11-10T07:34:33.752Z,82.21
2022-11-10T07:35:33.775Z,82.31
2022-11-10T07:36:34.103Z,82.02
2022-11-10T07:37:33.853Z,82.12
2022-11-10T07:39:34.044Z,81.73
2022-11-10T07:40:33.927Z,81.93
2022-11-10T07:41:33.976Z,81.73
2022-11-10T07:42:33.980Z,81.73
2022-11-10T07:43:34.312Z,81.45
2022-11-10T07:44:34.054Z,81.83
2022-11-10T07:46:34.106Z,81.63
2022-11-10T07:47:34.142Z,81.54
2022-11-10T07:48:34.176Z,81.83
2022-11-10T07:50:34.520Z,81.25
2022-11-10T07:51:34.604Z,81.45
2022-11-10T07:52:34.281Z,81.54
2022-11-10T07:53:34.312Z,81.93
2022-11-10T07:54:34.334Z,80.96
2022-11-10T07:55:34.372Z,81.63
2022-11-10T07:56:34.401Z,81.54
2022-11-10T07:57:34.447Z,81.45
2022-11-10T07:58:34.458Z,81.63
2022-11-10T07:59:34.490Z,81.25
2022-11-10T08:00:34.521Z,81.16
2022-11-10T08:01:34.577Z,81.35
2022-11-10T08:02:34.827Z,81.35
2022-11-10T08:03:34.611Z,81.16
2022-11-10T08:04:34.635Z,81.06
2022-11-10T08:05:34.675Z,81.35
2022-11-10T08:06:36.275Z,81.29
2022-11-10T08:07:34.855Z,81.16
2022-11-10T08:08:35.057Z,81.06
2022-11-10T08:09:34.791Z,80.87
2022-11-10T08:10:34.814Z,81.06
2022-11-10T08:11:34.946Z,81.06
2022-11-10T08:12:34.880Z,81.06
2022-11-10T08:13:34.935Z,80.68
2022-11-10T08:14:34.936Z,80.87
2022-11-10T08:15:35.266Z,80.58
2022-11-10T08:16:35.000Z,80.48
2022-11-10T08:17:35.025Z,80.68
2022-11-10T08:18:35.829Z,80.96
2022-11-10T08:19:35.098Z,80.58
2022-11-10T08:20:35.128Z,80.87
2022-11-10T08:22:35.482Z,80.77
2022-11-10T08:24:35.235Z,80.58
2022-11-10T08:26:35.295Z,80.52
2022-11-10T08:27:35.327Z,80.71
2022-11-10T08:28:35.360Z,80.23
2022-11-10T08:29:35.717Z,80.43
2022-11-10T08:31:35.446Z,80.33
2022-11-10T08:32:35.472Z,80.52
2022-11-10T08:33:35.509Z,80.52
2022-11-10T08:34:35.532Z,80.52
2022-11-10T08:35:35.567Z,80.52
2022-11-10T08:36:35.898Z,80.33
2022-11-10T08:38:35.654Z,80.14
2022-11-10T08:39:39.753Z,79.94
2022-11-10T08:40:35.717Z,80.14
2022-11-10T08:41:35.747Z,80.14
2022-11-10T08:42:35.777Z,80.33
2022-11-10T08:43:36.109Z,80.23
2022-11-10T08:44:35.945Z,80.33
2022-11-10T08:45:35.886Z,80.33
2022-11-10T08:46:35.897Z,80.23
2022-11-10T08:47:35.927Z,79.75
2022-11-10T08:49:36.243Z,79.85
2022-11-10T08:50:36.024Z,79.94
2022-11-10T08:51:39.039Z,79.75
2022-11-10T08:52:36.076Z,79.94
2022-11-10T08:53:36.108Z,79.85
2022-11-10T08:54:36.130Z,79.94
2022-11-10T08:55:36.167Z,79.94
2022-11-10T08:56:36.447Z,79.85
2022-11-10T08:57:36.261Z,80.04
2022-11-10T08:58:45.311Z,79.85
2022-11-10T08:59:36.286Z,79.85
2022-11-10T09:00:36.315Z,79.94
2022-11-10T09:01:36.398Z,79.94
2022-11-10T09:02:36.385Z,79.94
2022-11-10T09:03:36.712Z,80.04
2022-11-10T09:04:36.512Z,79.94
2022-11-10T09:05:36.472Z,80.33
2022-11-10T09:06:36.616Z,80.33
2022-11-10T09:07:36.530Z,80.23
2022-11-10T09:08:36.557Z,80.14
2022-11-10T09:09:36.589Z,79.56
2022-11-10T09:10:36.914Z,79.66
2022-11-10T09:11:36.650Z,79.46
2022-11-10T09:12:36.677Z,79.66
2022-11-10T09:13:36.788Z,79.66
2022-11-10T09:14:36.737Z,79.36
2022-11-10T09:15:36.769Z,79.36
2022-11-10T09:17:36.848Z,79.46
2022-11-10T09:18:36.857Z,79.46
2022-11-10T09:19:36.976Z,79.27
2022-11-10T09:20:36.935Z,79.46
2022-11-10T09:22:37.277Z,79.56
2022-11-10T09:23:37.013Z,79.66
2022-11-10T09:24:37.039Z,79.46
2022-11-10T09:25:37.074Z,78.98
2022-11-10T09:27:37.129Z,78.98
2022-11-10T09:28:37.158Z,79.36
2022-11-10T09:29:37.440Z,79.36
2022-11-10T09:30:37.217Z,79.56
2022-11-10T09:31:37.250Z,79.46
2022-11-10T09:32:37.286Z,79.66
2022-11-10T09:33:37.329Z,79.66
2022-11-10T09:34:37.340Z,79.27
2022-11-10T09:35:37.667Z,78.88
2022-11-10T09:36:37.405Z,78.88
2022-11-10T09:37:37.440Z,78.88
2022-11-10T09:38:37.462Z,79.08
2022-11-10T09:39:37.491Z,79.17
2022-11-10T09:40:37.526Z,78.98
2022-11-10T09:41:37.555Z,78.98
2022-11-10T09:42:37.890Z,78.88
2022-11-10T09:43:37.614Z,79.17
2022-11-10T09:44:37.649Z,78.88
2022-11-10T09:45:39.295Z,79.17
2022-11-10T09:46:37.701Z,78.79
2022-11-10T09:47:58.793Z,78.88
2022-11-10T09:48:37.762Z,78.79
2022-11-10T09:49:38.113Z,78.79
2022-11-10T09:50:37.824Z,78.59
2022-11-10T09:51:37.854Z,79.02
2022-11-10T09:52:37.884Z,78.98
2022-11-10T09:53:37.916Z,78.79
2022-11-10T09:54:38.059Z,78.69
2022-11-10T09:56:38.256Z,78.63
2022-11-10T09:57:38.040Z,78.63
2022-11-10T09:58:38.068Z,78.83
2022-11-10T09:59:38.097Z,78.98
2022-11-10T10:00:38.129Z,78.92
2022-11-10T10:01:38.229Z,78.88
2022-11-10T10:02:38.263Z,78.83
2022-11-10T10:03:38.215Z,78.73
2022-11-10T10:04:38.372Z,78.92
2022-11-10T10:05:38.297Z,78.44
2022-11-10T10:07:04.739Z,78.83
2022-11-10T10:07:38.386Z,78.63
2022-11-10T10:08:38.384Z,78.34
2022-11-10T10:09:38.654Z,78.25
2022-11-10T10:10:38.430Z,78.25
2022-11-10T10:11:38.472Z,78.34
2022-11-10T10:12:38.490Z,78.44
2022-11-10T10:13:38.521Z,78.44
2022-11-10T10:14:38.551Z,78.44
2022-11-10T10:15:38.581Z,78.25
2022-11-10T10:16:38.861Z,78.44
2022-11-10T10:17:41.337Z,78.25
2022-11-10T10:18:38.671Z,78.25
2022-11-10T10:19:38.709Z,78.44
2022-11-10T10:21:38.781Z,78.34
2022-11-10T10:22:38.842Z,78.34
2022-11-10T10:24:08.057Z,78.15
2022-11-10T10:24:38.857Z,78.34
2022-11-10T10:25:38.902Z,78.15
2022-11-10T10:26:38.923Z,78.54
2022-11-10T10:27:38.945Z,78.54
2022-11-10T10:29:39.268Z,78.54
2022-11-10T10:31:39.069Z,78.25
2022-11-10T10:32:39.107Z,78.34
2022-11-10T10:33:39.177Z,78.25
2022-11-10T10:34:39.160Z,78.73
2022-11-10T10:35:41.915Z,78.54
2022-11-10T10:36:39.220Z,78.54
2022-11-10T10:37:39.293Z,78.25
2022-11-10T10:39:39.310Z,78.34
2022-11-10T10:40:39.343Z,78.15
2022-11-10T10:41:39.671Z,78.25
2022-11-10T10:42:39.401Z,78.34
2022-11-10T10:43:39.431Z,78.34
2022-11-10T10:44:39.461Z,78.34
2022-11-10T10:45:39.561Z,78.15
2022-11-10T10:46:39.522Z,78.15
2022-11-10T10:47:39.553Z,78.06
2022-11-10T10:48:39.837Z,78.34
2022-11-10T10:49:39.796Z,78.15
2022-11-10T10:50:39.849Z,78.15
2022-11-10T10:51:39.935Z,78.15
2022-11-10T10:52:39.813Z,78.15
2022-11-10T10:53:39.919Z,78.25
2022-11-10T10:54:39.915Z,78.06
2022-11-10T10:55:40.097Z,78.15
2022-11-10T10:56:39.979Z,78.15
2022-11-10T10:58:39.975Z,78.15
2022-11-10T10:59:40.070Z,77.96
2022-11-10T11:00:40.101Z,78.15
2022-11-10T11:01:40.033Z,77.96
2022-11-10T11:02:40.255Z,77.96
2022-11-10T11:03:40.048Z,78.06
2022-11-10T11:04:40.080Z,78.34
2022-11-10T11:05:40.103Z,77.96
2022-11-10T11:06:40.178Z,78.25
2022-11-10T11:07:40.178Z,77.28
2022-11-10T11:08:40.291Z,77.28
2022-11-10T11:09:40.504Z,77.28
2022-11-10T11:10:40.256Z,77.58
2022-11-10T11:11:40.285Z,77.19
2022-11-10T11:12:40.314Z,77.38
2022-11-10T11:13:40.354Z,77.28
2022-11-10T11:14:45.609Z,77.38
2022-11-10T11:15:40.407Z,77.48
2022-11-10T11:16:40.687Z,76.80
2022-11-10T11:19:40.527Z,77.38
2022-11-10T11:20:40.560Z,77.19
2022-11-10T11:21:40.591Z,77.67
2022-11-10T11:22:40.631Z,77.58
2022-11-10T11:23:40.953Z,77.28
2022-11-10T11:24:40.680Z,77.58
2022-11-10T11:25:40.740Z,77.28
2022-11-10T11:26:40.746Z,77.38
2022-11-10T11:27:40.771Z,77.58
2022-11-10T11:28:40.909Z,77.38
2022-11-10T11:29:40.848Z,77.67
2022-11-10T11:30:41.116Z,77.28
2022-11-10T11:31:43.238Z,77.28
2022-11-10T11:32:40.928Z,77.28
2022-11-10T11:33:40.959Z,77.19
2022-11-10T11:34:40.996Z,77.09
2022-11-10T11:35:41.022Z,77.58
2022-11-10T11:36:41.049Z,77.28
2022-11-10T11:37:41.345Z,77.19
2022-11-10T11:38:41.164Z,77.00
2022-11-10T11:39:41.141Z,77.09
2022-11-10T11:40:41.263Z,77.19
2022-11-10T11:41:41.340Z,77.38
2022-11-10T11:42:57.593Z,77.58
2022-11-10T11:43:41.268Z,77.00
2022-11-10T11:44:41.291Z,76.61
2022-11-10T11:45:41.482Z,76.71
2022-11-10T11:46:44.982Z,76.61
2022-11-10T11:47:41.480Z,76.32
2022-11-10T11:48:41.519Z,77.00
2022-11-10T11:49:41.861Z,77.09
2022-11-10T11:50:41.500Z,77.00
2022-11-10T11:51:41.662Z,77.28
2022-11-10T11:54:41.599Z,76.80
2022-11-10T11:55:41.626Z,77.09
2022-11-10T11:56:42.777Z,76.03
2022-11-10T11:57:42.341Z,76.23
2022-11-10T11:59:42.354Z,76.80
2022-11-10T12:00:42.227Z,77.58
2022-11-10T12:01:41.815Z,77.58
2022-11-10T12:02:42.212Z,77.28
2022-11-10T12:03:41.871Z,77.76
2022-11-10T12:04:41.906Z,77.28
2022-11-10T12:05:41.933Z,77.67
2022-11-10T12:06:42.025Z,77.58
2022-11-10T12:07:41.995Z,77.86
2022-11-10T12:08:42.281Z,77.86
2022-11-10T12:09:42.055Z,77.86
2022-11-10T12:10:43.416Z,77.38
2022-11-10T12:11:42.113Z,77.58
2022-11-10T12:12:42.149Z,77.19
2022-11-10T12:13:42.403Z,77.71
2022-11-10T12:14:42.218Z,77.48
2022-11-10T12:15:42.489Z,77.19
2022-11-10T12:17:42.405Z,77.76
2022-11-10T12:18:47.101Z,77.76
2022-11-10T12:19:42.616Z,77.67
2022-11-10T12:20:42.398Z,77.23
2022-11-10T12:21:42.424Z,77.23
2022-11-10T12:22:42.762Z,77.48
2022-11-10T12:23:42.487Z,77.33
2022-11-10T12:24:42.520Z,77.48
2022-11-10T12:25:42.564Z,77.28
2022-11-10T12:26:42.582Z,77.33
2022-11-10T12:27:42.607Z,77.61
2022-11-10T12:28:42.649Z,77.28
2022-11-10T12:29:42.992Z,77.76
2022-11-10T12:30:42.698Z,77.67
2022-11-10T12:31:42.730Z,77.23
2022-11-10T12:33:42.795Z,77.71
2022-11-10T12:34:42.824Z,77.58
2022-11-10T12:35:42.856Z,77.58
2022-11-10T12:36:43.142Z,77.23
2022-11-10T12:37:42.914Z,77.33
2022-11-10T12:38:43.700Z,77.38
2022-11-10T12:39:42.988Z,77.23
2022-11-10T12:40:43.008Z,77.23
2022-11-10T12:41:43.043Z,77.23
2022-11-10T12:42:43.072Z,77.23
2022-11-10T12:43:43.350Z,77.33
2022-11-10T12:45:43.187Z,77.23
2022-11-10T12:46:45.930Z,77.33
2022-11-10T12:47:43.224Z,77.23
2022-11-10T12:48:43.250Z,77.28
2022-11-10T12:49:43.281Z,77.33
2022-11-10T12:50:43.642Z,77.33
2022-11-10T12:51:43.393Z,77.23
2022-11-10T12:52:43.378Z,77.33
2022-11-10T12:54:43.442Z,77.51
2022-11-10T12:55:43.476Z,77.38
2022-11-10T12:56:43.503Z,77.33
2022-11-10T12:57:43.834Z,77.51
2022-11-10T12:58:43.568Z,77.33
2022-11-10T12:59:43.594Z,77.33
2022-11-10T13:00:43.622Z,76.93
2022-11-10T13:01:43.759Z,76.93
2022-11-10T13:02:43.685Z,76.75
2022-11-10T13:03:43.712Z,76.84
2022-11-10T13:04:44.050Z,76.55
2022-11-10T13:05:43.774Z,75.68
2022-11-10T13:06:43.833Z,76.17
2022-11-10T13:07:43.837Z,76.55
2022-11-10T13:08:44.028Z,75.88
2022-11-10T13:09:43.913Z,75.59
2022-11-10T13:10:43.957Z,75.01
2022-11-10T13:11:44.269Z,76.36
2022-11-10T13:13:44.280Z,76.36
2022-11-10T13:14:44.049Z,76.23
2022-11-10T13:15:44.083Z,76.45
2022-11-10T13:16:44.115Z,76.17
2022-11-10T13:17:44.223Z,76.36
2022-11-10T13:18:44.430Z,76.65
2022-11-10T13:19:44.386Z,76.65
2022-11-10T13:20:44.235Z,76.07
2022-11-10T13:22:44.304Z,76.17
2022-11-10T13:23:44.331Z,76.65
2022-11-10T13:24:44.500Z,76.45
2022-11-10T13:25:44.642Z,76.45
2022-11-10T13:26:44.433Z,76.84
2022-11-10T13:27:44.454Z,76.93
2022-11-10T13:29:44.515Z,76.65
2022-11-10T13:30:44.545Z,76.75
2022-11-10T13:31:44.579Z,76.75
2022-11-10T13:32:44.907Z,76.55
2022-11-10T13:33:44.666Z,76.45
2022-11-10T13:34:44.670Z,76.65
2022-11-10T13:35:44.699Z,76.45
2022-11-10T13:36:44.728Z,76.55
2022-11-10T13:37:47.335Z,76.65
2022-11-10T13:38:45.042Z,76.65
2022-11-10T13:39:44.823Z,76.07
2022-11-10T13:40:44.864Z,76.26
2022-11-10T13:41:44.886Z,75.97
2022-11-10T13:42:47.290Z,76.45